sensor_id;sensor_type;location;lat;lon;timestamp;P1;durP1;ratioP1;P2;durP2;ratioP2
37409;SDS011;23275;48.914;12.566;2024-01-07T00:01:35;18.85;;;9.40;;
37409;SDS011;23275;48.914;12.566;2024-01-07T00:04:01;19.60;;;10.07;;
37409;SDS011;23275;48.914;12.566;2024-01-07T00:06:26;18.90;;;9.20;;
37409;SDS011;23275;48.914;12.566;2024-01-07T00:08:52;18.55;;;9.43;;
37409;SDS011;23275;48.914;12.566;2024-01-07T00:11:17;19.85;;;10.23;;
37409;SDS011;23275;48.914;12.566;2024-01-07T00:13:43;23.35;;;9.75;;
37409;SDS011;23275;48.914;12.566;2024-01-07T00:16:08;17.85;;;9.93;;
37409;SDS011;23275;48.914;12.566;2024-01-07T00:18:34;19.00;;;10.25;;
37409;SDS011;23275;48.914;12.566;2024-01-07T00:20:59;21.67;;;10.27;;
37409;SDS011;23275;48.914;12.566;2024-01-07T00:23:25;18.45;;;9.52;;
37409;SDS011;23275;48.914;12.566;2024-01-07T00:25:51;21.58;;;10.30;;
37409;SDS011;23275;48.914;12.566;2024-01-07T00:28:16;20.40;;;9.60;;
37409;SDS011;23275;48.914;12.566;2024-01-07T00:30:42;17.40;;;9.07;;
37409;SDS011;23275;48.914;12.566;2024-01-07T00:33:07;19.27;;;9.27;;
37409;SDS011;23275;48.914;12.566;2024-01-07T00:35:33;16.25;;;8.88;;
37409;SDS011;23275;48.914;12.566;2024-01-07T00:37:58;15.40;;;8.13;;
37409;SDS011;23275;48.914;12.566;2024-01-07T00:40:24;16.00;;;7.88;;
37409;SDS011;23275;48.914;12.566;2024-01-07T00:42:49;16.92;;;8.35;;
37409;SDS011;23275;48.914;12.566;2024-01-07T00:45:16;16.15;;;8.35;;
37409;SDS011;23275;48.914;12.566;2024-01-07T00:47:42;14.82;;;7.47;;
37409;SDS011;23275;48.914;12.566;2024-01-07T00:50:08;15.50;;;8.05;;
37409;SDS011;23275;48.914;12.566;2024-01-07T00:52:33;17.70;;;8.40;;
37409;SDS011;23275;48.914;12.566;2024-01-07T00:55:00;15.10;;;8.27;;
37409;SDS011;23275;48.914;12.566;2024-01-07T00:57:28;18.70;;;8.60;;
37409;SDS011;23275;48.914;12.566;2024-01-07T00:59:54;17.55;;;8.20;;
37409;SDS011;23275;48.914;12.566;2024-01-07T01:02:19;17.30;;;8.80;;
37409;SDS011;23275;48.914;12.566;2024-01-07T01:04:45;15.57;;;8.23;;
37409;SDS011;23275;48.914;12.566;2024-01-07T01:07:10;16.83;;;8.93;;
37409;SDS011;23275;48.914;12.566;2024-01-07T01:09:36;16.60;;;9.00;;
37409;SDS011;23275;48.914;12.566;2024-01-07T01:12:01;15.80;;;8.25;;
37409;SDS011;23275;48.914;12.566;2024-01-07T01:14:27;18.80;;;7.95;;
37409;SDS011;23275;48.914;12.566;2024-01-07T01:16:52;13.85;;;7.93;;
37409;SDS011;23275;48.914;12.566;2024-01-07T01:19:18;16.35;;;8.23;;
37409;SDS011;23275;48.914;12.566;2024-01-07T01:21:44;13.43;;;7.30;;
37409;SDS011;23275;48.914;12.566;2024-01-07T01:24:09;15.88;;;8.23;;
37409;SDS011;23275;48.914;12.566;2024-01-07T01:26:35;13.98;;;7.80;;
37409;SDS011;23275;48.914;12.566;2024-01-07T01:29:00;12.52;;;6.80;;
37409;SDS011;23275;48.914;12.566;2024-01-07T01:31:26;14.65;;;7.93;;
37409;SDS011;23275;48.914;12.566;2024-01-07T01:33:51;15.93;;;8.02;;
37409;SDS011;23275;48.914;12.566;2024-01-07T01:36:17;13.57;;;6.80;;
37409;SDS011;23275;48.914;12.566;2024-01-07T01:38:42;15.63;;;7.78;;
37409;SDS011;23275;48.914;12.566;2024-01-07T01:41:08;14.88;;;7.53;;
37409;SDS011;23275;48.914;12.566;2024-01-07T01:43:34;14.70;;;7.53;;
37409;SDS011;23275;48.914;12.566;2024-01-07T01:46:00;15.52;;;7.38;;
37409;SDS011;23275;48.914;12.566;2024-01-07T01:48:26;13.63;;;7.55;;
37409;SDS011;23275;48.914;12.566;2024-01-07T01:50:53;13.93;;;7.22;;
37409;SDS011;23275;48.914;12.566;2024-01-07T01:53:22;13.77;;;7.60;;
37409;SDS011;23275;48.914;12.566;2024-01-07T01:55:49;14.43;;;7.53;;
37409;SDS011;23275;48.914;12.566;2024-01-07T01:58:14;13.73;;;6.95;;
37409;SDS011;23275;48.914;12.566;2024-01-07T02:00:43;13.90;;;7.00;;
37409;SDS011;23275;48.914;12.566;2024-01-07T02:03:09;14.15;;;7.57;;
37409;SDS011;23275;48.914;12.566;2024-01-07T02:05:35;13.10;;;7.20;;
37409;SDS011;23275;48.914;12.566;2024-01-07T02:08:00;12.77;;;6.05;;
37409;SDS011;23275;48.914;12.566;2024-01-07T02:10:26;12.45;;;7.00;;
37409;SDS011;23275;48.914;12.566;2024-01-07T02:12:54;12.65;;;6.78;;
37409;SDS011;23275;48.914;12.566;2024-01-07T02:15:19;15.60;;;7.50;;
37409;SDS011;23275;48.914;12.566;2024-01-07T02:17:45;12.82;;;6.35;;
37409;SDS011;23275;48.914;12.566;2024-01-07T02:20:10;11.73;;;6.60;;
37409;SDS011;23275;48.914;12.566;2024-01-07T02:22:36;11.35;;;6.13;;
37409;SDS011;23275;48.914;12.566;2024-01-07T02:25:01;12.75;;;6.57;;
37409;SDS011;23275;48.914;12.566;2024-01-07T02:27:27;11.43;;;6.55;;
37409;SDS011;23275;48.914;12.566;2024-01-07T02:29:53;12.50;;;6.68;;
37409;SDS011;23275;48.914;12.566;2024-01-07T02:32:18;12.82;;;6.32;;
37409;SDS011;23275;48.914;12.566;2024-01-07T02:34:44;11.60;;;6.93;;
37409;SDS011;23275;48.914;12.566;2024-01-07T02:37:09;11.40;;;6.88;;
37409;SDS011;23275;48.914;12.566;2024-01-07T02:39:36;14.38;;;6.63;;
37409;SDS011;23275;48.914;12.566;2024-01-07T02:42:01;14.93;;;6.22;;
37409;SDS011;23275;48.914;12.566;2024-01-07T02:44:27;12.00;;;6.22;;
37409;SDS011;23275;48.914;12.566;2024-01-07T02:46:53;12.73;;;6.70;;
37409;SDS011;23275;48.914;12.566;2024-01-07T02:49:18;12.75;;;6.15;;
37409;SDS011;23275;48.914;12.566;2024-01-07T02:51:44;13.30;;;6.20;;
37409;SDS011;23275;48.914;12.566;2024-01-07T02:54:14;10.18;;;5.75;;
37409;SDS011;23275;48.914;12.566;2024-01-07T02:56:40;10.52;;;5.45;;
37409;SDS011;23275;48.914;12.566;2024-01-07T02:59:05;11.88;;;6.00;;
37409;SDS011;23275;48.914;12.566;2024-01-07T03:01:31;12.10;;;5.90;;
37409;SDS011;23275;48.914;12.566;2024-01-07T03:03:57;15.02;;;7.57;;
37409;SDS011;23275;48.914;12.566;2024-01-07T03:06:26;10.75;;;5.95;;
37409;SDS011;23275;48.914;12.566;2024-01-07T03:08:52;10.80;;;5.97;;
37409;SDS011;23275;48.914;12.566;2024-01-07T03:11:18;10.07;;;4.88;;
37409;SDS011;23275;48.914;12.566;2024-01-07T03:13:46;9.95;;;5.20;;
37409;SDS011;23275;48.914;12.566;2024-01-07T03:16:18;9.75;;;5.35;;
37409;SDS011;23275;48.914;12.566;2024-01-07T03:18:45;12.07;;;5.75;;
37409;SDS011;23275;48.914;12.566;2024-01-07T03:21:16;11.93;;;6.03;;
37409;SDS011;23275;48.914;12.566;2024-01-07T03:23:45;9.70;;;5.35;;
37409;SDS011;23275;48.914;12.566;2024-01-07T03:26:12;6.70;;;4.53;;
37409;SDS011;23275;48.914;12.566;2024-01-07T03:28:38;10.05;;;4.82;;
37409;SDS011;23275;48.914;12.566;2024-01-07T03:31:07;8.57;;;4.95;;
37409;SDS011;23275;48.914;12.566;2024-01-07T03:33:34;9.10;;;4.88;;
37409;SDS011;23275;48.914;12.566;2024-01-07T03:36:01;10.77;;;5.35;;
37409;SDS011;23275;48.914;12.566;2024-01-07T03:38:38;10.00;;;5.60;;
37409;SDS011;23275;48.914;12.566;2024-01-07T03:41:04;10.65;;;5.18;;
37409;SDS011;23275;48.914;12.566;2024-01-07T03:43:31;10.82;;;5.43;;
37409;SDS011;23275;48.914;12.566;2024-01-07T03:45:56;11.40;;;6.10;;
37409;SDS011;23275;48.914;12.566;2024-01-07T03:48:22;10.48;;;5.72;;
37409;SDS011;23275;48.914;12.566;2024-01-07T03:50:48;10.40;;;5.60;;
37409;SDS011;23275;48.914;12.566;2024-01-07T03:53:14;11.85;;;6.22;;
37409;SDS011;23275;48.914;12.566;2024-01-07T03:55:39;11.35;;;6.25;;
37409;SDS011;23275;48.914;12.566;2024-01-07T03:58:05;12.88;;;6.20;;
37409;SDS011;23275;48.914;12.566;2024-01-07T04:00:31;11.25;;;6.15;;
37409;SDS011;23275;48.914;12.566;2024-01-07T04:02:57;11.90;;;6.50;;
37409;SDS011;23275;48.914;12.566;2024-01-07T04:05:22;13.55;;;6.63;;
37409;SDS011;23275;48.914;12.566;2024-01-07T04:07:48;12.00;;;6.15;;
37409;SDS011;23275;48.914;12.566;2024-01-07T04:10:15;12.23;;;7.28;;
37409;SDS011;23275;48.914;12.566;2024-01-07T04:12:41;13.65;;;6.78;;
37409;SDS011;23275;48.914;12.566;2024-01-07T04:15:07;11.85;;;6.80;;
37409;SDS011;23275;48.914;12.566;2024-01-07T04:17:33;12.07;;;6.30;;
37409;SDS011;23275;48.914;12.566;2024-01-07T04:19:59;10.93;;;5.53;;
37409;SDS011;23275;48.914;12.566;2024-01-07T04:22:24;13.18;;;6.47;;
37409;SDS011;23275;48.914;12.566;2024-01-07T04:24:50;12.07;;;6.53;;
37409;SDS011;23275;48.914;12.566;2024-01-07T04:27:15;10.50;;;5.93;;
37409;SDS011;23275;48.914;12.566;2024-01-07T04:29:41;9.85;;;5.88;;
37409;SDS011;23275;48.914;12.566;2024-01-07T04:32:06;11.70;;;5.60;;
37409;SDS011;23275;48.914;12.566;2024-01-07T04:34:32;11.38;;;5.40;;
37409;SDS011;23275;48.914;12.566;2024-01-07T04:36:57;9.70;;;4.97;;
37409;SDS011;23275;48.914;12.566;2024-01-07T04:39:23;12.10;;;6.05;;
37409;SDS011;23275;48.914;12.566;2024-01-07T04:41:48;12.10;;;5.72;;
37409;SDS011;23275;48.914;12.566;2024-01-07T04:44:14;15.48;;;6.60;;
37409;SDS011;23275;48.914;12.566;2024-01-07T04:46:40;10.15;;;5.43;;
37409;SDS011;23275;48.914;12.566;2024-01-07T04:49:05;11.18;;;6.35;;
37409;SDS011;23275;48.914;12.566;2024-01-07T04:51:31;12.05;;;5.78;;
37409;SDS011;23275;48.914;12.566;2024-01-07T04:53:58;10.57;;;5.60;;
37409;SDS011;23275;48.914;12.566;2024-01-07T04:56:23;10.63;;;5.15;;
37409;SDS011;23275;48.914;12.566;2024-01-07T04:58:49;10.77;;;5.65;;
37409;SDS011;23275;48.914;12.566;2024-01-07T05:01:14;12.52;;;5.32;;
37409;SDS011;23275;48.914;12.566;2024-01-07T05:03:40;10.90;;;5.50;;
37409;SDS011;23275;48.914;12.566;2024-01-07T05:06:08;11.20;;;5.47;;
37409;SDS011;23275;48.914;12.566;2024-01-07T05:08:35;14.75;;;6.43;;
37409;SDS011;23275;48.914;12.566;2024-01-07T05:11:02;10.90;;;5.60;;
37409;SDS011;23275;48.914;12.566;2024-01-07T05:13:31;11.43;;;6.22;;
37409;SDS011;23275;48.914;12.566;2024-01-07T05:15:56;12.85;;;5.90;;
37409;SDS011;23275;48.914;12.566;2024-01-07T05:18:22;11.88;;;6.50;;
37409;SDS011;23275;48.914;12.566;2024-01-07T05:20:48;11.88;;;6.13;;
37409;SDS011;23275;48.914;12.566;2024-01-07T05:23:15;12.38;;;6.15;;
37409;SDS011;23275;48.914;12.566;2024-01-07T05:25:43;13.90;;;6.35;;
37409;SDS011;23275;48.914;12.566;2024-01-07T05:28:10;11.05;;;6.22;;
37409;SDS011;23275;48.914;12.566;2024-01-07T05:30:36;15.07;;;7.03;;
37409;SDS011;23275;48.914;12.566;2024-01-07T05:33:02;11.15;;;5.93;;
37409;SDS011;23275;48.914;12.566;2024-01-07T05:35:27;12.50;;;6.28;;
37409;SDS011;23275;48.914;12.566;2024-01-07T05:37:53;11.65;;;6.18;;
37409;SDS011;23275;48.914;12.566;2024-01-07T05:40:18;11.55;;;6.20;;
37409;SDS011;23275;48.914;12.566;2024-01-07T05:42:44;14.05;;;6.65;;
37409;SDS011;23275;48.914;12.566;2024-01-07T05:45:09;11.77;;;6.45;;
37409;SDS011;23275;48.914;12.566;2024-01-07T05:47:35;12.15;;;6.72;;
37409;SDS011;23275;48.914;12.566;2024-01-07T05:50:01;13.18;;;6.97;;
37409;SDS011;23275;48.914;12.566;2024-01-07T05:52:27;13.15;;;6.70;;
37409;SDS011;23275;48.914;12.566;2024-01-07T05:54:52;11.52;;;6.38;;
37409;SDS011;23275;48.914;12.566;2024-01-07T05:57:18;13.85;;;6.60;;
37409;SDS011;23275;48.914;12.566;2024-01-07T05:59:44;10.65;;;6.35;;
37409;SDS011;23275;48.914;12.566;2024-01-07T06:02:10;12.88;;;6.68;;
37409;SDS011;23275;48.914;12.566;2024-01-07T06:04:37;12.80;;;6.72;;
37409;SDS011;23275;48.914;12.566;2024-01-07T06:07:03;11.52;;;6.50;;
37409;SDS011;23275;48.914;12.566;2024-01-07T06:09:28;12.70;;;6.38;;
37409;SDS011;23275;48.914;12.566;2024-01-07T06:11:54;13.23;;;6.97;;
37409;SDS011;23275;48.914;12.566;2024-01-07T06:14:20;14.07;;;7.00;;
37409;SDS011;23275;48.914;12.566;2024-01-07T06:16:46;10.98;;;6.38;;
37409;SDS011;23275;48.914;12.566;2024-01-07T06:19:12;12.30;;;6.40;;
37409;SDS011;23275;48.914;12.566;2024-01-07T06:21:39;15.57;;;7.95;;
37409;SDS011;23275;48.914;12.566;2024-01-07T06:24:05;12.88;;;6.90;;
37409;SDS011;23275;48.914;12.566;2024-01-07T06:26:32;12.38;;;5.95;;
37409;SDS011;23275;48.914;12.566;2024-01-07T06:28:58;12.25;;;6.95;;
37409;SDS011;23275;48.914;12.566;2024-01-07T06:31:24;13.82;;;6.85;;
37409;SDS011;23275;48.914;12.566;2024-01-07T06:33:50;13.20;;;6.85;;
37409;SDS011;23275;48.914;12.566;2024-01-07T06:36:16;13.98;;;7.60;;
37409;SDS011;23275;48.914;12.566;2024-01-07T06:38:41;13.18;;;7.25;;
37409;SDS011;23275;48.914;12.566;2024-01-07T06:41:07;16.13;;;7.25;;
37409;SDS011;23275;48.914;12.566;2024-01-07T06:43:32;12.68;;;7.05;;
37409;SDS011;23275;48.914;12.566;2024-01-07T06:45:58;13.35;;;6.97;;
37409;SDS011;23275;48.914;12.566;2024-01-07T06:48:24;12.60;;;7.40;;
37409;SDS011;23275;48.914;12.566;2024-01-07T06:50:49;15.68;;;7.53;;
37409;SDS011;23275;48.914;12.566;2024-01-07T06:53:15;17.30;;;7.82;;
37409;SDS011;23275;48.914;12.566;2024-01-07T06:55:41;12.38;;;7.07;;
37409;SDS011;23275;48.914;12.566;2024-01-07T06:58:07;14.43;;;7.10;;
37409;SDS011;23275;48.914;12.566;2024-01-07T07:00:32;14.68;;;6.80;;
37409;SDS011;23275;48.914;12.566;2024-01-07T07:02:58;11.38;;;6.20;;
37409;SDS011;23275;48.914;12.566;2024-01-07T07:05:23;13.52;;;6.93;;
37409;SDS011;23275;48.914;12.566;2024-01-07T07:07:49;13.30;;;6.90;;
37409;SDS011;23275;48.914;12.566;2024-01-07T07:10:14;11.10;;;6.18;;
37409;SDS011;23275;48.914;12.566;2024-01-07T07:12:40;11.75;;;5.65;;
37409;SDS011;23275;48.914;12.566;2024-01-07T07:15:05;14.43;;;6.57;;
37409;SDS011;23275;48.914;12.566;2024-01-07T07:17:31;12.38;;;6.68;;
37409;SDS011;23275;48.914;12.566;2024-01-07T07:19:57;17.23;;;6.82;;
37409;SDS011;23275;48.914;12.566;2024-01-07T07:22:22;11.75;;;5.78;;
37409;SDS011;23275;48.914;12.566;2024-01-07T07:24:48;11.05;;;6.13;;
37409;SDS011;23275;48.914;12.566;2024-01-07T07:27:13;10.50;;;5.78;;
37409;SDS011;23275;48.914;12.566;2024-01-07T07:29:39;15.38;;;6.43;;
37409;SDS011;23275;48.914;12.566;2024-01-07T07:32:05;11.93;;;6.25;;
37409;SDS011;23275;48.914;12.566;2024-01-07T07:34:32;11.40;;;6.40;;
37409;SDS011;23275;48.914;12.566;2024-01-07T07:36:58;12.45;;;6.63;;
37409;SDS011;23275;48.914;12.566;2024-01-07T07:39:23;13.77;;;6.68;;
37409;SDS011;23275;48.914;12.566;2024-01-07T07:41:49;13.10;;;6.28;;
37409;SDS011;23275;48.914;12.566;2024-01-07T07:44:14;13.48;;;7.25;;
37409;SDS011;23275;48.914;12.566;2024-01-07T07:46:40;13.23;;;6.70;;
37409;SDS011;23275;48.914;12.566;2024-01-07T07:49:06;13.48;;;6.90;;
37409;SDS011;23275;48.914;12.566;2024-01-07T07:51:31;11.98;;;6.57;;
37409;SDS011;23275;48.914;12.566;2024-01-07T07:53:57;14.20;;;7.35;;
37409;SDS011;23275;48.914;12.566;2024-01-07T07:56:22;11.80;;;6.40;;
37409;SDS011;23275;48.914;12.566;2024-01-07T07:58:48;10.90;;;6.43;;
37409;SDS011;23275;48.914;12.566;2024-01-07T08:01:13;11.48;;;6.53;;
37409;SDS011;23275;48.914;12.566;2024-01-07T08:03:39;11.43;;;6.35;;
37409;SDS011;23275;48.914;12.566;2024-01-07T08:06:04;13.23;;;6.47;;
37409;SDS011;23275;48.914;12.566;2024-01-07T08:08:30;13.48;;;6.90;;
37409;SDS011;23275;48.914;12.566;2024-01-07T08:10:56;12.77;;;6.80;;
37409;SDS011;23275;48.914;12.566;2024-01-07T08:13:21;14.10;;;7.32;;
37409;SDS011;23275;48.914;12.566;2024-01-07T08:15:47;12.07;;;6.65;;
37409;SDS011;23275;48.914;12.566;2024-01-07T08:18:12;11.68;;;7.07;;
37409;SDS011;23275;48.914;12.566;2024-01-07T08:20:38;10.60;;;6.10;;
37409;SDS011;23275;48.914;12.566;2024-01-07T08:23:05;12.00;;;6.18;;
37409;SDS011;23275;48.914;12.566;2024-01-07T08:25:31;11.43;;;6.32;;
37409;SDS011;23275;48.914;12.566;2024-01-07T08:27:57;11.82;;;6.22;;
37409;SDS011;23275;48.914;12.566;2024-01-07T08:30:22;12.32;;;6.93;;
37409;SDS011;23275;48.914;12.566;2024-01-07T08:32:48;12.95;;;7.13;;
37409;SDS011;23275;48.914;12.566;2024-01-07T08:35:14;13.05;;;7.28;;
37409;SDS011;23275;48.914;12.566;2024-01-07T08:37:39;12.45;;;7.00;;
37409;SDS011;23275;48.914;12.566;2024-01-07T08:40:05;14.07;;;7.70;;
37409;SDS011;23275;48.914;12.566;2024-01-07T08:42:34;14.80;;;7.15;;
37409;SDS011;23275;48.914;12.566;2024-01-07T08:45:00;15.95;;;7.78;;
37409;SDS011;23275;48.914;12.566;2024-01-07T08:47:28;13.55;;;8.05;;
37409;SDS011;23275;48.914;12.566;2024-01-07T08:49:56;14.15;;;8.38;;
37409;SDS011;23275;48.914;12.566;2024-01-07T08:52:22;16.50;;;7.97;;
37409;SDS011;23275;48.914;12.566;2024-01-07T08:54:47;13.93;;;7.15;;
37409;SDS011;23275;48.914;12.566;2024-01-07T08:57:13;14.00;;;8.15;;
37409;SDS011;23275;48.914;12.566;2024-01-07T08:59:38;15.07;;;7.47;;
37409;SDS011;23275;48.914;12.566;2024-01-07T09:02:04;15.73;;;8.10;;
37409;SDS011;23275;48.914;12.566;2024-01-07T09:04:30;13.45;;;7.90;;
37409;SDS011;23275;48.914;12.566;2024-01-07T09:06:55;16.27;;;7.97;;
37409;SDS011;23275;48.914;12.566;2024-01-07T09:09:21;14.85;;;8.40;;
37409;SDS011;23275;48.914;12.566;2024-01-07T09:11:47;16.25;;;8.30;;
37409;SDS011;23275;48.914;12.566;2024-01-07T09:14:13;14.82;;;8.05;;
37409;SDS011;23275;48.914;12.566;2024-01-07T09:16:39;13.40;;;7.90;;
37409;SDS011;23275;48.914;12.566;2024-01-07T09:19:05;15.43;;;7.65;;
37409;SDS011;23275;48.914;12.566;2024-01-07T09:21:30;13.35;;;8.45;;
37409;SDS011;23275;48.914;12.566;2024-01-07T09:23:56;14.52;;;8.57;;
37409;SDS011;23275;48.914;12.566;2024-01-07T09:26:21;15.32;;;8.35;;
37409;SDS011;23275;48.914;12.566;2024-01-07T09:28:50;14.35;;;8.23;;
37409;SDS011;23275;48.914;12.566;2024-01-07T09:31:17;14.73;;;8.17;;
37409;SDS011;23275;48.914;12.566;2024-01-07T09:33:43;17.23;;;8.00;;
37409;SDS011;23275;48.914;12.566;2024-01-07T09:36:08;16.40;;;8.00;;
37409;SDS011;23275;48.914;12.566;2024-01-07T09:38:35;16.77;;;7.90;;
37409;SDS011;23275;48.914;12.566;2024-01-07T09:41:01;14.57;;;7.57;;
37409;SDS011;23275;48.914;12.566;2024-01-07T09:43:28;15.75;;;7.70;;
37409;SDS011;23275;48.914;12.566;2024-01-07T09:45:53;15.52;;;8.07;;
37409;SDS011;23275;48.914;12.566;2024-01-07T09:48:20;13.13;;;7.18;;
37409;SDS011;23275;48.914;12.566;2024-01-07T09:50:45;12.63;;;6.97;;
37409;SDS011;23275;48.914;12.566;2024-01-07T09:53:11;12.02;;;7.07;;
37409;SDS011;23275;48.914;12.566;2024-01-07T09:58:36;13.38;;;6.40;;
37409;SDS011;23275;48.914;12.566;2024-01-07T10:01:02;12.23;;;6.22;;
37409;SDS011;23275;48.914;12.566;2024-01-07T10:03:30;12.48;;;6.60;;
37409;SDS011;23275;48.914;12.566;2024-01-07T10:05:55;13.38;;;6.35;;
37409;SDS011;23275;48.914;12.566;2024-01-07T10:08:21;14.75;;;7.20;;
37409;SDS011;23275;48.914;12.566;2024-01-07T10:10:48;14.38;;;6.25;;
37409;SDS011;23275;48.914;12.566;2024-01-07T10:13:14;11.43;;;5.75;;
37409;SDS011;23275;48.914;12.566;2024-01-07T10:15:39;12.35;;;6.40;;
37409;SDS011;23275;48.914;12.566;2024-01-07T10:18:05;15.73;;;7.15;;
37409;SDS011;23275;48.914;12.566;2024-01-07T10:20:32;12.02;;;6.30;;
37409;SDS011;23275;48.914;12.566;2024-01-07T10:22:59;11.80;;;6.15;;
37409;SDS011;23275;48.914;12.566;2024-01-07T10:25:30;10.40;;;5.25;;
37409;SDS011;23275;48.914;12.566;2024-01-07T10:28:00;14.07;;;6.57;;
37409;SDS011;23275;48.914;12.566;2024-01-07T10:30:26;12.40;;;6.45;;
37409;SDS011;23275;48.914;12.566;2024-01-07T10:32:58;10.68;;;6.15;;
37409;SDS011;23275;48.914;12.566;2024-01-07T10:35:27;11.77;;;6.13;;
37409;SDS011;23275;48.914;12.566;2024-01-07T10:37:58;12.20;;;6.57;;
37409;SDS011;23275;48.914;12.566;2024-01-07T10:40:24;10.75;;;6.55;;
37409;SDS011;23275;48.914;12.566;2024-01-07T10:42:51;14.18;;;7.68;;
37409;SDS011;23275;48.914;12.566;2024-01-07T10:45:19;13.60;;;7.78;;
37409;SDS011;23275;48.914;12.566;2024-01-07T10:47:46;13.65;;;6.70;;
37409;SDS011;23275;48.914;12.566;2024-01-07T10:50:15;10.18;;;6.32;;
37409;SDS011;23275;48.914;12.566;2024-01-07T10:52:42;12.05;;;7.20;;
37409;SDS011;23275;48.914;12.566;2024-01-07T10:55:12;10.48;;;6.97;;
37409;SDS011;23275;48.914;12.566;2024-01-07T10:57:43;13.95;;;7.32;;
37409;SDS011;23275;48.914;12.566;2024-01-07T11:00:11;12.82;;;7.10;;
37409;SDS011;23275;48.914;12.566;2024-01-07T11:03:45;12.77;;;6.25;;
37409;SDS011;23275;48.914;12.566;2024-01-07T11:05:50;11.05;;;6.20;;
37409;SDS011;23275;48.914;12.566;2024-01-07T11:11:22;12.90;;;7.00;;
37409;SDS011;23275;48.914;12.566;2024-01-07T11:13:56;12.35;;;6.63;;
37409;SDS011;23275;48.914;12.566;2024-01-07T11:16:41;13.00;;;6.50;;
37409;SDS011;23275;48.914;12.566;2024-01-07T11:19:08;12.32;;;6.78;;
37409;SDS011;23275;48.914;12.566;2024-01-07T11:21:34;11.40;;;6.03;;
37409;SDS011;23275;48.914;12.566;2024-01-07T11:23:59;15.23;;;7.47;;
37409;SDS011;23275;48.914;12.566;2024-01-07T11:26:28;11.75;;;6.22;;
37409;SDS011;23275;48.914;12.566;2024-01-07T11:28:55;10.93;;;6.82;;
37409;SDS011;23275;48.914;12.566;2024-01-07T11:34:07;13.93;;;6.88;;
37409;SDS011;23275;48.914;12.566;2024-01-07T11:36:34;13.75;;;6.90;;
37409;SDS011;23275;48.914;12.566;2024-01-07T11:39:01;11.43;;;7.05;;
37409;SDS011;23275;48.914;12.566;2024-01-07T11:41:28;11.38;;;6.30;;
37409;SDS011;23275;48.914;12.566;2024-01-07T11:43:58;12.45;;;6.95;;
37409;SDS011;23275;48.914;12.566;2024-01-07T11:46:27;14.65;;;7.53;;
37409;SDS011;23275;48.914;12.566;2024-01-07T11:48:55;12.87;;;7.43;;
37409;SDS011;23275;48.914;12.566;2024-01-07T11:53:51;13.95;;;6.82;;
37409;SDS011;23275;48.914;12.566;2024-01-07T11:56:18;14.48;;;7.68;;
37409;SDS011;23275;48.914;12.566;2024-01-07T11:58:43;13.65;;;7.47;;
37409;SDS011;23275;48.914;12.566;2024-01-07T12:01:09;16.95;;;7.80;;
37409;SDS011;23275;48.914;12.566;2024-01-07T12:03:35;11.45;;;6.85;;
37409;SDS011;23275;48.914;12.566;2024-01-07T12:06:01;14.15;;;7.15;;
37409;SDS011;23275;48.914;12.566;2024-01-07T12:08:27;14.40;;;7.88;;
37409;SDS011;23275;48.914;12.566;2024-01-07T12:10:53;14.27;;;6.93;;
37409;SDS011;23275;48.914;12.566;2024-01-07T12:13:20;16.00;;;7.80;;
37409;SDS011;23275;48.914;12.566;2024-01-07T12:15:45;16.23;;;6.95;;
37409;SDS011;23275;48.914;12.566;2024-01-07T12:18:12;14.98;;;7.63;;
37409;SDS011;23275;48.914;12.566;2024-01-07T12:20:37;13.00;;;7.32;;
37409;SDS011;23275;48.914;12.566;2024-01-07T12:23:06;13.10;;;6.75;;
37409;SDS011;23275;48.914;12.566;2024-01-07T12:25:33;14.50;;;7.88;;
37409;SDS011;23275;48.914;12.566;2024-01-07T12:27:59;13.02;;;7.75;;
37409;SDS011;23275;48.914;12.566;2024-01-07T12:30:24;15.07;;;8.18;;
37409;SDS011;23275;48.914;12.566;2024-01-07T12:32:54;14.90;;;7.60;;
37409;SDS011;23275;48.914;12.566;2024-01-07T12:35:20;12.53;;;7.47;;
37409;SDS011;23275;48.914;12.566;2024-01-07T12:37:45;12.35;;;7.53;;
37409;SDS011;23275;48.914;12.566;2024-01-07T12:40:13;12.55;;;6.78;;
37409;SDS011;23275;48.914;12.566;2024-01-07T12:42:39;13.57;;;7.97;;
37409;SDS011;23275;48.914;12.566;2024-01-07T12:45:14;12.18;;;7.07;;
37409;SDS011;23275;48.914;12.566;2024-01-07T12:47:40;13.57;;;7.55;;
37409;SDS011;23275;48.914;12.566;2024-01-07T12:50:07;15.48;;;7.50;;
37409;SDS011;23275;48.914;12.566;2024-01-07T12:52:35;12.80;;;7.00;;
37409;SDS011;23275;48.914;12.566;2024-01-07T12:55:07;13.85;;;7.10;;
37409;SDS011;23275;48.914;12.566;2024-01-07T12:57:33;13.65;;;8.40;;
37409;SDS011;23275;48.914;12.566;2024-01-07T12:59:59;16.42;;;8.15;;
37409;SDS011;23275;48.914;12.566;2024-01-07T13:02:25;15.18;;;7.70;;
37409;SDS011;23275;48.914;12.566;2024-01-07T13:04:51;26.38;;;13.85;;
37409;SDS011;23275;48.914;12.566;2024-01-07T13:07:16;28.17;;;13.32;;
37409;SDS011;23275;48.914;12.566;2024-01-07T13:09:42;28.08;;;12.10;;
37409;SDS011;23275;48.914;12.566;2024-01-07T13:12:09;26.05;;;12.40;;
37409;SDS011;23275;48.914;12.566;2024-01-07T13:14:35;42.45;;;18.67;;
37409;SDS011;23275;48.914;12.566;2024-01-07T13:17:01;16.63;;;9.27;;
37409;SDS011;23275;48.914;12.566;2024-01-07T13:19:27;12.50;;;6.97;;
37409;SDS011;23275;48.914;12.566;2024-01-07T13:21:53;14.00;;;7.35;;
37409;SDS011;23275;48.914;12.566;2024-01-07T13:24:24;12.35;;;6.75;;
37409;SDS011;23275;48.914;12.566;2024-01-07T13:26:50;12.07;;;6.40;;
37409;SDS011;23275;48.914;12.566;2024-01-07T13:29:15;12.88;;;7.22;;
37409;SDS011;23275;48.914;12.566;2024-01-07T13:31:41;12.02;;;6.72;;
37409;SDS011;23275;48.914;12.566;2024-01-07T13:34:06;14.63;;;6.28;;
37409;SDS011;23275;48.914;12.566;2024-01-07T13:36:33;11.32;;;6.22;;
37409;SDS011;23275;48.914;12.566;2024-01-07T13:38:59;10.45;;;5.70;;
37409;SDS011;23275;48.914;12.566;2024-01-07T13:41:24;10.98;;;6.10;;
37409;SDS011;23275;48.914;12.566;2024-01-07T13:43:53;12.82;;;6.85;;
37409;SDS011;23275;48.914;12.566;2024-01-07T13:46:20;11.15;;;6.20;;
37409;SDS011;23275;48.914;12.566;2024-01-07T13:48:48;10.98;;;6.22;;
37409;SDS011;23275;48.914;12.566;2024-01-07T13:51:14;10.95;;;6.75;;
37409;SDS011;23275;48.914;12.566;2024-01-07T13:53:39;14.70;;;6.57;;
37409;SDS011;23275;48.914;12.566;2024-01-07T13:56:05;12.68;;;5.95;;
37409;SDS011;23275;48.914;12.566;2024-01-07T13:58:32;11.80;;;6.70;;
37409;SDS011;23275;48.914;12.566;2024-01-07T14:00:57;11.35;;;6.22;;
37409;SDS011;23275;48.914;12.566;2024-01-07T14:03:23;11.82;;;6.22;;
37409;SDS011;23275;48.914;12.566;2024-01-07T14:05:49;12.43;;;6.40;;
37409;SDS011;23275;48.914;12.566;2024-01-07T14:08:16;12.93;;;6.78;;
37409;SDS011;23275;48.914;12.566;2024-01-07T14:10:42;12.20;;;7.00;;
37409;SDS011;23275;48.914;12.566;2024-01-07T14:13:07;10.18;;;6.43;;
37409;SDS011;23275;48.914;12.566;2024-01-07T14:15:33;13.35;;;6.57;;
37409;SDS011;23275;48.914;12.566;2024-01-07T14:17:59;11.75;;;7.07;;
37409;SDS011;23275;48.914;12.566;2024-01-07T14:20:25;12.30;;;6.57;;
37409;SDS011;23275;48.914;12.566;2024-01-07T14:22:53;12.73;;;6.22;;
37409;SDS011;23275;48.914;12.566;2024-01-07T14:25:19;12.90;;;7.55;;
37409;SDS011;23275;48.914;12.566;2024-01-07T14:27:45;12.35;;;6.32;;